sensor_id;sensor_type;location;lat;lon;timestamp;pressure;altitude;pressure_sealevel;temperature;humidity
60170;BME280;46042;49.444;6.862;2024-03-25T00:00:17;97967.28;;;4.97;nan
60170;BME280;46042;49.444;6.862;2024-03-25T00:02:43;97968.97;;;4.98;91.24
60170;BME280;46042;49.444;6.862;2024-03-25T00:05:10;97973.09;;;5.02;91.05
60170;BME280;46042;49.444;6.862;2024-03-25T00:07:39;97967.78;;;5.04;90.23
60170;BME280;46042;49.444;6.862;2024-03-25T00:10:06;97968.56;;;5.06;90.37
60170;BME280;46042;49.444;6.862;2024-03-25T00:12:34;97961.22;;;4.96;90.89
60170;BME280;46042;49.444;6.862;2024-03-25T00:15:00;97962.81;;;4.99;90.88
60170;BME280;46042;49.444;6.862;2024-03-25T00:17:28;97967.22;;;5.15;90.06
60170;BME280;46042;49.444;6.862;2024-03-25T00:19:54;97961.41;;;5.09;90.66
60170;BME280;46042;49.444;6.862;2024-03-25T00:22:21;97962.56;;;5.04;90.83
60170;BME280;46042;49.444;6.862;2024-03-25T00:24:47;97962.66;;;5.02;91.26
60170;BME280;46042;49.444;6.862;2024-03-25T00:27:15;97967.34;;;4.95;91.88
60170;BME280;46042;49.444;6.862;2024-03-25T00:29:41;97968.53;;;4.90;92.78
60170;BME280;46042;49.444;6.862;2024-03-25T00:32:07;97965.53;;;4.97;92.32
60170;BME280;46042;49.444;6.862;2024-03-25T00:34:34;97969.97;;;4.95;91.65
60170;BME280;46042;49.444;6.862;2024-03-25T00:37:00;97970.75;;;4.97;92.95
60170;BME280;46042;49.444;6.862;2024-03-25T00:39:26;97960.44;;;4.94;92.52
60170;BME280;46042;49.444;6.862;2024-03-25T00:41:53;97970.47;;;5.02;92.27
60170;BME280;46042;49.444;6.862;2024-03-25T00:44:19;97970.41;;;5.04;92.69
60170;BME280;46042;49.444;6.862;2024-03-25T00:46:45;97977.13;;;5.08;92.26
60170;BME280;46042;49.444;6.862;2024-03-25T00:49:11;97971.91;;;4.92;93.40
60170;BME280;46042;49.444;6.862;2024-03-25T00:51:37;97967.75;;;4.88;93.25
60170;BME280;46042;49.444;6.862;2024-03-25T00:54:03;97968.09;;;4.81;93.76
60170;BME280;46042;49.444;6.862;2024-03-25T00:56:30;97966.69;;;4.92;93.49
60170;BME280;46042;49.444;6.862;2024-03-25T00:58:56;97969.88;;;4.97;93.68
60170;BME280;46042;49.444;6.862;2024-03-25T01:01:24;97967.28;;;4.97;93.48
60170;BME280;46042;49.444;6.862;2024-03-25T01:03:49;97970.22;;;4.91;92.99
60170;BME280;46042;49.444;6.862;2024-03-25T01:06:16;97970.47;;;4.86;93.67
60170;BME280;46042;49.444;6.862;2024-03-25T01:08:43;97963.41;;;4.88;94.83
60170;BME280;46042;49.444;6.862;2024-03-25T01:11:09;97962.41;;;4.91;95.16
60170;BME280;46042;49.444;6.862;2024-03-25T01:13:34;97961.88;;;4.84;95.37
60170;BME280;46042;49.444;6.862;2024-03-25T01:16:01;97960.84;;;4.87;94.66
60170;BME280;46042;49.444;6.862;2024-03-25T01:18:26;97955.91;;;4.82;94.71
60170;BME280;46042;49.444;6.862;2024-03-25T01:20:52;97961.88;;;4.84;94.80
60170;BME280;46042;49.444;6.862;2024-03-25T01:23:18;97956.03;;;4.79;95.63
60170;BME280;46042;49.444;6.862;2024-03-25T01:25:44;97957.66;;;4.81;94.25
60170;BME280;46042;49.444;6.862;2024-03-25T01:28:10;97950.06;;;4.77;94.92
60170;BME280;46042;49.444;6.862;2024-03-25T01:30:36;97946.19;;;4.68;94.78
60170;BME280;46042;49.444;6.862;2024-03-25T01:33:04;97953.44;;;4.79;94.61
60170;BME280;46042;49.444;6.862;2024-03-25T01:35:31;97952.03;;;4.73;93.74
60170;BME280;46042;49.444;6.862;2024-03-25T01:37:57;97953.19;;;4.67;95.19
60170;BME280;46042;49.444;6.862;2024-03-25T01:40:23;97953.94;;;4.69;94.42
60170;BME280;46042;49.444;6.862;2024-03-25T01:42:59;97944.78;;;4.62;96.21
60170;BME280;46042;49.444;6.862;2024-03-25T01:45:27;97937.44;;;4.69;95.62
60170;BME280;46042;49.444;6.862;2024-03-25T01:47:54;97931.78;;;4.61;96.32
60170;BME280;46042;49.444;6.862;2024-03-25T01:50:21;97929.19;;;4.61;95.95
60170;BME280;46042;49.444;6.862;2024-03-25T01:52:47;97930.69;;;4.65;95.46
60170;BME280;46042;49.444;6.862;2024-03-25T01:55:21;97926.41;;;4.64;95.86
60170;BME280;46042;49.444;6.862;2024-03-25T01:57:48;97935.41;;;4.58;94.83
60170;BME280;46042;49.444;6.862;2024-03-25T02:00:15;97929.34;;;4.58;95.02
60170;BME280;46042;49.444;6.862;2024-03-25T02:02:42;97931.72;;;4.62;94.86
60170;BME280;46042;49.444;6.862;2024-03-25T02:05:10;97924.38;;;4.53;95.02
60170;BME280;46042;49.444;6.862;2024-03-25T02:07:37;97927.97;;;4.50;94.09
60170;BME280;46042;49.444;6.862;2024-03-25T02:10:07;97925.69;;;4.44;95.73
60170;BME280;46042;49.444;6.862;2024-03-25T02:12:33;97918.03;;;4.41;95.42
60170;BME280;46042;49.444;6.862;2024-03-25T02:14:59;97921.97;;;4.32;95.57
60170;BME280;46042;49.444;6.862;2024-03-25T02:17:25;97922.22;;;4.27;94.98
60170;BME280;46042;49.444;6.862;2024-03-25T02:19:51;97924.78;;;4.11;95.76
60170;BME280;46042;49.444;6.862;2024-03-25T02:22:17;97919.94;;;4.04;96.12
60170;BME280;46042;49.444;6.862;2024-03-25T02:24:46;97914.22;;;3.97;95.69
60170;BME280;46042;49.444;6.862;2024-03-25T02:27:14;97911.81;;;3.92;97.45
60170;BME280;46042;49.444;6.862;2024-03-25T02:29:43;97921.56;;;3.89;96.80
60170;BME280;46042;49.444;6.862;2024-03-25T02:32:10;97914.88;;;3.83;96.43
60170;BME280;46042;49.444;6.862;2024-03-25T02:34:41;97915.97;;;3.79;96.89
60170;BME280;46042;49.444;6.862;2024-03-25T02:37:07;97907.91;;;3.83;97.36
60170;BME280;46042;49.444;6.862;2024-03-25T02:39:34;97902.00;;;3.80;97.64
60170;BME280;46042;49.444;6.862;2024-03-25T02:41:59;97900.25;;;3.80;96.11
60170;BME280;46042;49.444;6.862;2024-03-25T02:44:25;97899.63;;;3.75;95.96
60170;BME280;46042;49.444;6.862;2024-03-25T02:46:52;97902.34;;;3.74;95.76
60170;BME280;46042;49.444;6.862;2024-03-25T02:49:18;97899.94;;;3.69;95.67
60170;BME280;46042;49.444;6.862;2024-03-25T02:51:44;97896.66;;;3.65;95.17
60170;BME280;46042;49.444;6.862;2024-03-25T02:54:09;97898.66;;;3.60;95.68
60170;BME280;46042;49.444;6.862;2024-03-25T02:56:35;97891.22;;;3.52;97.38
60170;BME280;46042;49.444;6.862;2024-03-25T02:59:02;97895.50;;;3.53;96.11
60170;BME280;46042;49.444;6.862;2024-03-25T03:01:28;97891.81;;;3.40;99.31
60170;BME280;46042;49.444;6.862;2024-03-25T03:03:53;97897.63;;;3.27;98.58
60170;BME280;46042;49.444;6.862;2024-03-25T03:06:19;97903.03;;;3.23;99.12
60170;BME280;46042;49.444;6.862;2024-03-25T03:08:45;97897.34;;;3.15;100.00
60170;BME280;46042;49.444;6.862;2024-03-25T03:11:10;97897.81;;;3.05;100.00
60170;BME280;46042;49.444;6.862;2024-03-25T03:13:36;97895.56;;;2.97;100.00
60170;BME280;46042;49.444;6.862;2024-03-25T03:16:02;97895.56;;;2.97;100.00
60170;BME280;46042;49.444;6.862;2024-03-25T03:18:28;97899.34;;;2.90;100.00
60170;BME280;46042;49.444;6.862;2024-03-25T03:20:54;97905.69;;;2.84;100.00
60170;BME280;46042;49.444;6.862;2024-03-25T03:23:23;97902.25;;;2.84;100.00
60170;BME280;46042;49.444;6.862;2024-03-25T03:25:48;97903.56;;;2.93;100.00
60170;BME280;46042;49.444;6.862;2024-03-25T03:28:15;97898.47;;;2.91;100.00
60170;BME280;46042;49.444;6.862;2024-03-25T03:30:41;97896.88;;;2.87;100.00
60170;BME280;46042;49.444;6.862;2024-03-25T03:33:07;97894.22;;;2.89;100.00
60170;BME280;46042;49.444;6.862;2024-03-25T03:35:33;97891.69;;;2.87;100.00
60170;BME280;46042;49.444;6.862;2024-03-25T03:37:59;97891.00;;;2.83;99.61
60170;BME280;46042;49.444;6.862;2024-03-25T03:40:26;97899.94;;;2.78;99.59
60170;BME280;46042;49.444;6.862;2024-03-25T03:42:52;62137.28;;;-147.77;100.00
60170;BME280;46042;49.444;6.862;2024-03-25T03:45:17;97899.94;;;2.78;99.59
60170;BME280;46042;49.444;6.862;2024-03-25T03:47:43;97899.34;;;2.33;100.00
60170;BME280;46042;49.444;6.862;2024-03-25T03:50:09;97902.72;;;2.35;100.00
60170;BME280;46042;49.444;6.862;2024-03-25T03:52:35;97900.38;;;2.28;100.00
60170;BME280;46042;49.444;6.862;2024-03-25T03:55:01;97896.03;;;2.29;100.00
60170;BME280;46042;49.444;6.862;2024-03-25T03:57:27;97892.66;;;2.27;100.00
60170;BME280;46042;49.444;6.862;2024-03-25T03:59:52;97889.69;;;2.16;100.00
60170;BME280;46042;49.444;6.862;2024-03-25T04:02:18;97882.94;;;2.11;100.00
60170;BME280;46042;49.444;6.862;2024-03-25T04:04:44;97893.84;;;1.99;100.00
60170;BME280;46042;49.444;6.862;2024-03-25T04:07:10;97891.59;;;1.91;100.00
60170;BME280;46042;49.444;6.862;2024-03-25T04:09:35;97887.72;;;1.81;100.00
60170;BME280;46042;49.444;6.862;2024-03-25T04:12:01;97892.00;;;1.82;100.00
60170;BME280;46042;49.444;6.862;2024-03-25T04:14:27;97895.03;;;1.92;100.00
60170;BME280;46042;49.444;6.862;2024-03-25T04:16:53;97892.13;;;1.99;100.00
60170;BME280;46042;49.444;6.862;2024-03-25T04:19:23;97892.69;;;2.06;100.00
60170;BME280;46042;49.444;6.862;2024-03-25T04:21:48;97890.28;;;2.02;100.00
60170;BME280;46042;49.444;6.862;2024-03-25T04:24:14;97902.44;;;2.01;100.00
60170;BME280;46042;49.444;6.862;2024-03-25T04:26:40;97899.00;;;2.01;100.00
60170;BME280;46042;49.444;6.862;2024-03-25T04:29:06;97890.94;;;1.86;100.00
60170;BME280;46042;49.444;6.862;2024-03-25T04:31:31;97892.69;;;1.85;100.00
60170;BME280;46042;49.444;6.862;2024-03-25T04:33:57;97896.19;;;1.84;100.00
60170;BME280;46042;49.444;6.862;2024-03-25T04:36:23;97887.72;;;1.81;100.00
60170;BME280;46042;49.444;6.862;2024-03-25T04:38:49;97886.66;;;1.85;100.00
60170;BME280;46042;49.444;6.862;2024-03-25T04:41:15;97884.25;;;1.80;100.00
60170;BME280;46042;49.444;6.862;2024-03-25T04:43:40;97884.53;;;1.74;100.00
60170;BME280;46042;49.444;6.862;2024-03-25T04:46:06;97885.50;;;1.72;100.00
60170;BME280;46042;49.444;6.862;2024-03-25T04:48:32;97882.31;;;1.65;100.00
60170;BME280;46042;49.444;6.862;2024-03-25T04:50:58;97885.16;;;1.59;100.00
60170;BME280;46042;49.444;6.862;2024-03-25T04:53:24;97894.78;;;1.56;100.00
60170;BME280;46042;49.444;6.862;2024-03-25T04:55:49;97892.19;;;1.56;100.00
60170;BME280;46042;49.444;6.862;2024-03-25T04:58:15;97891.41;;;1.54;100.00
60170;BME280;46042;49.444;6.862;2024-03-25T05:00:41;97887.81;;;1.57;100.00
60170;BME280;46042;49.444;6.862;2024-03-25T05:03:06;97888.59;;;1.59;100.00
60170;BME280;46042;49.444;6.862;2024-03-25T05:05:33;97899.25;;;1.53;100.00
60170;BME280;46042;49.444;6.862;2024-03-25T05:07:59;97897.59;;;1.50;100.00
60170;BME280;46042;49.444;6.862;2024-03-25T05:10:25;97899.41;;;1.48;100.00
60170;BME280;46042;49.444;6.862;2024-03-25T05:12:51;97892.53;;;1.47;100.00
60170;BME280;46042;49.444;6.862;2024-03-25T05:15:16;97890.66;;;1.30;100.00
60170;BME280;46042;49.444;6.862;2024-03-25T05:17:42;97896.63;;;1.32;100.00
60170;BME280;46042;49.444;6.862;2024-03-25T05:20:08;97893.44;;;1.46;100.00
60170;BME280;46042;49.444;6.862;2024-03-25T05:22:35;97891.59;;;1.50;100.00
60170;BME280;46042;49.444;6.862;2024-03-25T05:25:00;97895.00;;;1.50;100.00
60170;BME280;46042;49.444;6.862;2024-03-25T05:27:26;97902.16;;;1.45;100.00
60170;BME280;46042;49.444;6.862;2024-03-25T05:29:52;97920.25;;;1.47;100.00
60170;BME280;46042;49.444;6.862;2024-03-25T05:32:18;97908.44;;;1.39;100.00
60170;BME280;46042;49.444;6.862;2024-03-25T05:34:47;97911.97;;;1.37;100.00
60170;BME280;46042;49.444;6.862;2024-03-25T05:37:14;97918.69;;;1.42;100.00
60170;BME280;46042;49.444;6.862;2024-03-25T05:39:40;97916.16;;;1.41;100.00
60170;BME280;46042;49.444;6.862;2024-03-25T05:42:05;97917.72;;;1.45;100.00
60170;BME280;46042;49.444;6.862;2024-03-25T05:44:32;97917.78;;;1.44;100.00
60170;BME280;46042;49.444;6.862;2024-03-25T05:46:57;97923.63;;;1.49;100.00
60170;BME280;46042;49.444;6.862;2024-03-25T05:49:23;97919.41;;;1.46;100.00
60170;BME280;46042;49.444;6.862;2024-03-25T05:51:49;97918.44;;;1.49;100.00
60170;BME280;46042;49.444;6.862;2024-03-25T05:54:14;97926.03;;;1.53;100.00
60170;BME280;46042;49.444;6.862;2024-03-25T05:56:40;97930.44;;;1.51;100.00
60170;BME280;46042;49.444;6.862;2024-03-25T05:59:06;97926.84;;;1.55;100.00
60170;BME280;46042;49.444;6.862;2024-03-25T06:01:32;97934.53;;;1.57;100.00
60170;BME280;46042;49.444;6.862;2024-03-25T06:03:59;97929.13;;;1.63;100.00
60170;BME280;46042;49.444;6.862;2024-03-25T06:06:25;97932.50;;;1.65;100.00
60170;BME280;46042;49.444;6.862;2024-03-25T06:08:50;97924.09;;;1.59;100.00
60170;BME280;46042;49.444;6.862;2024-03-25T06:11:16;97931.75;;;1.62;100.00
60170;BME280;46042;49.444;6.862;2024-03-25T06:13:46;97925.66;;;1.63;100.00
60170;BME280;46042;49.444;6.862;2024-03-25T06:16:13;97927.16;;;1.68;100.00
60170;BME280;46042;49.444;6.862;2024-03-25T06:18:39;97921.31;;;1.63;100.00
60170;BME280;46042;49.444;6.862;2024-03-25T06:21:07;97916.13;;;1.63;100.00
60170;BME280;46042;49.444;6.862;2024-03-25T06:23:33;97920.41;;;1.64;100.00
60170;BME280;46042;49.444;6.862;2024-03-25T06:25:59;97920.16;;;1.70;100.00
60170;BME280;46042;49.444;6.862;2024-03-25T06:28:25;97921.47;;;1.81;100.00
60170;BME280;46042;49.444;6.862;2024-03-25T06:30:51;97916.78;;;1.89;100.00
60170;BME280;46042;49.444;6.862;2024-03-25T06:33:36;97911.31;;;1.95;100.00
60170;BME280;46042;49.444;6.862;2024-03-25T06:36:20;97899.50;;;2.09;100.00
60170;BME280;46042;49.444;6.862;2024-03-25T06:38:46;97905.13;;;2.19;100.00
60170;BME280;46042;49.444;6.862;2024-03-25T06:41:12;97903.88;;;2.27;100.00
60170;BME280;46042;49.444;6.862;2024-03-25T06:43:38;97910.81;;;2.48;100.00
60170;BME280;46042;49.444;6.862;2024-03-25T06:46:05;97912.72;;;2.63;100.00
60170;BME280;46042;49.444;6.862;2024-03-25T06:48:32;97912.22;;;2.74;100.00
60170;BME280;46042;49.444;6.862;2024-03-25T06:50:58;97913.16;;;2.92;100.00
60170;BME280;46042;49.444;6.862;2024-03-25T06:53:25;97907.16;;;2.90;100.00
60170;BME280;46042;49.444;6.862;2024-03-25T06:55:52;97911.06;;;2.99;100.00
60170;BME280;46042;49.444;6.862;2024-03-25T06:58:22;97910.03;;;3.03;100.00
60170;BME280;46042;49.444;6.862;2024-03-25T07:00:49;97915.41;;;3.00;100.00
60170;BME280;46042;49.444;6.862;2024-03-25T07:03:16;97907.53;;;3.19;100.00
60170;BME280;46042;49.444;6.862;2024-03-25T07:05:45;97925.69;;;3.21;100.00
60170;BME280;46042;49.444;6.862;2024-03-25T07:08:11;97918.22;;;3.32;100.00
60170;BME280;46042;49.444;6.862;2024-03-25T07:10:37;97910.03;;;3.40;100.00
60170;BME280;46042;49.444;6.862;2024-03-25T07:13:03;97919.16;;;3.66;100.00
60170;BME280;46042;49.444;6.862;2024-03-25T07:15:30;97908.81;;;4.18;100.00
60170;BME280;46042;49.444;6.862;2024-03-25T07:17:57;97907.72;;;4.55;100.00
60170;BME280;46042;49.444;6.862;2024-03-25T07:20:23;97906.16;;;5.17;100.00
60170;BME280;46042;49.444;6.862;2024-03-25T07:22:49;97889.88;;;5.75;100.00
60170;BME280;46042;49.444;6.862;2024-03-25T07:25:16;97890.97;;;6.16;99.12
60170;BME280;46042;49.444;6.862;2024-03-25T07:27:42;97891.19;;;6.56;96.32
60170;BME280;46042;49.444;6.862;2024-03-25T07:30:08;97884.06;;;7.15;93.76
60170;BME280;46042;49.444;6.862;2024-03-25T07:32:34;97879.44;;;7.18;91.84
60170;BME280;46042;49.444;6.862;2024-03-25T07:35:00;97881.47;;;7.28;91.23
60170;BME280;46042;49.444;6.862;2024-03-25T07:37:26;97874.56;;;7.26;89.39
60170;BME280;46042;49.444;6.862;2024-03-25T07:39:52;97884.78;;;7.44;89.62
60170;BME280;46042;49.444;6.862;2024-03-25T07:42:18;97883.44;;;7.51;87.49
60170;BME280;46042;49.444;6.862;2024-03-25T07:44:44;97878.53;;;7.60;84.86
60170;BME280;46042;49.444;6.862;2024-03-25T07:47:10;97884.94;;;7.28;85.04
60170;BME280;46042;49.444;6.862;2024-03-25T07:49:36;97892.28;;;7.36;90.11
60170;BME280;46042;49.444;6.862;2024-03-25T07:52:02;97888.88;;;7.21;88.29
60170;BME280;46042;49.444;6.862;2024-03-25T07:54:29;97887.19;;;6.92;90.69
60170;BME280;46042;49.444;6.862;2024-03-25T07:56:54;97897.69;;;6.78;91.33
60170;BME280;46042;49.444;6.862;2024-03-25T07:59:20;97902.56;;;6.69;91.90
60170;BME280;46042;49.444;6.862;2024-03-25T08:01:46;97897.16;;;6.73;93.18
60170;BME280;46042;49.444;6.862;2024-03-25T08:04:11;97898.44;;;6.65;94.73
60170;BME280;46042;49.444;6.862;2024-03-25T08:06:37;97898.28;;;6.68;92.90
60170;BME280;46042;49.444;6.862;2024-03-25T08:09:03;97894.88;;;7.23;95.61
60170;BME280;46042;49.444;6.862;2024-03-25T08:11:31;97893.69;;;7.95;91.06
60170;BME280;46042;49.444;6.862;2024-03-25T08:13:57;97893.84;;;7.66;85.67
60170;BME280;46042;49.444;6.862;2024-03-25T08:16:23;97899.03;;;8.45;90.38
60170;BME280;46042;49.444;6.862;2024-03-25T08:18:49;97881.94;;;9.03;88.18
60170;BME280;46042;49.444;6.862;2024-03-25T08:21:16;97883.28;;;9.57;87.11
60170;BME280;46042;49.444;6.862;2024-03-25T08:23:44;97888.75;;;8.81;79.64
60170;BME280;46042;49.444;6.862;2024-03-25T08:26:11;97882.03;;;8.64;80.33
60170;BME280;46042;49.444;6.862;2024-03-25T08:28:37;97871.50;;;9.14;83.31
60170;BME280;46042;49.444;6.862;2024-03-25T08:31:03;97869.59;;;8.92;82.42
60170;BME280;46042;49.444;6.862;2024-03-25T08:33:29;97860.22;;;9.01;82.25
60170;BME280;46042;49.444;6.862;2024-03-25T08:35:55;97868.56;;;9.43;84.67
60170;BME280;46042;49.444;6.862;2024-03-25T08:38:21;97859.00;;;9.42;80.10
60170;BME280;46042;49.444;6.862;2024-03-25T08:40:47;97852.56;;;9.58;80.69
60170;BME280;46042;49.444;6.862;2024-03-25T08:43:13;97847.28;;;9.46;74.08
60170;BME280;46042;49.444;6.862;2024-03-25T08:45:38;97845.19;;;9.63;75.54
60170;BME280;46042;49.444;6.862;2024-03-25T08:48:04;97836.72;;;9.82;77.80
60170;BME280;46042;49.444;6.862;2024-03-25T08:50:30;97836.34;;;9.75;76.65
60170;BME280;46042;49.444;6.862;2024-03-25T08:52:56;97838.69;;;9.91;75.13
60170;BME280;46042;49.444;6.862;2024-03-25T08:55:21;97837.00;;;9.43;74.19
60170;BME280;46042;49.444;6.862;2024-03-25T08:57:47;97847.78;;;8.78;77.14
60170;BME280;46042;49.444;6.862;2024-03-25T09:00:14;97843.69;;;8.74;78.94
60170;BME280;46042;49.444;6.862;2024-03-25T09:02:39;97845.22;;;8.90;77.88
60170;BME280;46042;49.444;6.862;2024-03-25T09:05:06;97836.06;;;8.95;77.76
60170;BME280;46042;49.444;6.862;2024-03-25T09:07:32;97842.59;;;8.52;77.29
60170;BME280;46042;49.444;6.862;2024-03-25T09:09:58;97828.34;;;8.81;78.42
60170;BME280;46042;49.444;6.862;2024-03-25T09:12:42;97825.81;;;9.04;80.42
60170;BME280;46042;49.444;6.862;2024-03-25T09:15:08;97818.56;;;9.07;78.60
60170;BME280;46042;49.444;6.862;2024-03-25T09:17:35;97814.44;;;8.92;80.19
60170;BME280;46042;49.444;6.862;2024-03-25T09:20:02;97815.84;;;8.72;78.91
60170;BME280;46042;49.444;6.862;2024-03-25T09:22:44;97812.50;;;8.70;80.05
60170;BME280;46042;49.444;6.862;2024-03-25T09:25:10;97805.72;;;8.54;80.52
60170;BME280;46042;49.444;6.862;2024-03-25T09:27:39;97812.00;;;8.64;80.99
60170;BME280;46042;49.444;6.862;2024-03-25T09:30:06;97797.84;;;8.67;79.49
60170;BME280;46042;49.444;6.862;2024-03-25T09:32:33;97785.22;;;8.96;83.87
60170;BME280;46042;49.444;6.862;2024-03-25T09:34:58;97785.28;;;8.84;80.76
60170;BME280;46042;49.444;6.862;2024-03-25T09:37:24;97776.13;;;10.06;85.61
60170;BME280;46042;49.444;6.862;2024-03-25T09:39:50;97777.69;;;10.32;71.58
60170;BME280;46042;49.444;6.862;2024-03-25T09:42:25;97773.72;;;10.26;74.07
60170;BME280;46042;49.444;6.862;2024-03-25T09:44:54;97770.38;;;9.90;72.33
60170;BME280;46042;49.444;6.862;2024-03-25T09:47:21;97764.09;;;10.82;79.70
60170;BME280;46042;49.444;6.862;2024-03-25T09:49:47;62137.28;;;-147.77;100.00
60170;BME280;46042;49.444;6.862;2024-03-25T09:52:17;62137.28;;;-147.77;100.00
60170;BME280;46042;49.444;6.862;2024-03-25T09:54:43;62137.28;;;-147.77;100.00
60170;BME280;46042;49.444;6.862;2024-03-25T09:57:08;62137.28;;;-147.77;100.00
60170;BME280;46042;49.444;6.862;2024-03-25T09:59:35;62137.28;;;-147.77;100.00
60170;BME280;46042;49.444;6.862;2024-03-25T10:02:01;62137.28;;;-147.77;100.00
60170;BME280;46042;49.444;6.862;2024-03-25T10:04:28;62137.28;;;-147.77;100.00
60170;BME280;46042;49.444;6.862;2024-03-25T10:06:54;62137.28;;;-147.77;100.00
60170;BME280;46042;49.444;6.862;2024-03-25T10:09:20;62137.28;;;-147.77;100.00
60170;BME280;46042;49.444;6.862;2024-03-25T10:11:49;62137.28;;;-147.77;100.00
60170;BME280;46042;49.444;6.862;2024-03-25T10:14:18;62137.28;;;-147.77;100.00
60170;BME280;46042;49.444;6.862;2024-03-25T10:16:50;62137.28;;;-147.77;100.00
60170;BME280;46042;49.444;6.862;2024-03-25T10:19:16;97764.09;;;10.82;79.70
60170;BME280;46042;49.444;6.862;2024-03-25T10:21:41;97730.13;;;11.00;72.31
60170;BME280;46042;49.444;6.862;2024-03-25T10:24:07;97721.94;;;11.57;65.44
60170;BME280;46042;49.444;6.862;2024-03-25T10:26:33;97728.75;;;11.17;65.04
60170;BME280;46042;49.444;6.862;2024-03-25T10:29:05;97721.31;;;12.06;63.97
60170;BME280;46042;49.444;6.862;2024-03-25T10:31:34;97712.84;;;12.43;66.54
60170;BME280;46042;49.444;6.862;2024-03-25T10:34:00;62137.28;;;-147.77;100.00
60170;BME280;46042;49.444;6.862;2024-03-25T10:36:26;62137.28;;;-147.77;100.00
60170;BME280;46042;49.444;6.862;2024-03-25T10:38:57;62137.28;;;-147.77;100.00
60170;BME280;46042;49.444;6.862;2024-03-25T10:41:26;62137.28;;;-147.77;100.00
60170;BME280;46042;49.444;6.862;2024-03-25T10:43:53;62137.28;;;-147.77;100.00
60170;BME280;46042;49.444;6.862;2024-03-25T10:46:20;62137.28;;;-147.77;100.00
60170;BME280;46042;49.444;6.862;2024-03-25T10:48:53;62137.28;;;-147.77;100.00
60170;BME280;46042;49.444;6.862;2024-03-25T10:51:24;62137.28;;;-147.77;100.00
60170;BME280;46042;49.444;6.862;2024-03-25T10:53:53;62137.28;;;-147.77;100.00
60170;BME280;46042;49.444;6.862;2024-03-25T10:56:21;62137.28;;;-147.77;100.00
60170;BME280;46042;49.444;6.862;2024-03-25T10:58:48;62137.28;;;-147.77;100.00
60170;BME280;46042;49.444;6.862;2024-03-25T11:01:18;62137.28;;;-147.77;100.00
60170;BME280;46042;49.444;6.862;2024-03-25T11:03:45;62137.28;;;-147.77;100.00
60170;BME280;46042;49.444;6.862;2024-03-25T11:06:12;62137.28;;;-147.77;100.00
60170;BME280;46042;49.444;6.862;2024-03-25T11:08:38;62137.28;;;-147.77;100.00
60170;BME280;46042;49.444;6.862;2024-03-25T11:11:05;62137.28;;;-147.77;100.00
60170;BME280;46042;49.444;6.862;2024-03-25T11:13:31;62137.28;;;-147.77;100.00
60170;BME280;46042;49.444;6.862;2024-03-25T11:15:57;62137.28;;;-147.77;100.00
60170;BME280;46042;49.444;6.862;2024-03-25T11:18:25;62137.28;;;-147.77;100.00
60170;BME280;46042;49.444;6.862;2024-03-25T11:21:07;62137.28;;;-147.77;100.00
60170;BME280;46042;49.444;6.862;2024-03-25T11:23:44;62137.28;;;-147.77;100.00
60170;BME280;46042;49.444;6.862;2024-03-25T11:26:21;62137.28;;;-147.77;100.00
60170;BME280;46042;49.444;6.862;2024-03-25T11:28:48;62137.28;;;-147.77;100.00
60170;BME280;46042;49.444;6.862;2024-03-25T11:31:15;62137.28;;;-147.77;100.00
60170;BME280;46042;49.444;6.862;2024-03-25T11:33:41;62137.28;;;-147.77;100.00
60170;BME280;46042;49.444;6.862;2024-03-25T11:36:07;62137.28;;;-147.77;100.00
60170;BME280;46042;49.444;6.862;2024-03-25T11:38:33;62137.28;;;-147.77;100.00
60170;BME280;46042;49.444;6.862;2024-03-25T11:41:00;62137.28;;;-147.77;100.00
60170;BME280;46042;49.444;6.862;2024-03-25T11:43:26;62137.28;;;-147.77;100.00
60170;BME280;46042;49.444;6.862;2024-03-25T11:45:51;62137.28;;;-147.77;100.00
60170;BME280;46042;49.444;6.862;2024-03-25T11:48:19;62137.28;;;-147.77;100.00
60170;BME280;46042;49.444;6.862;2024-03-25T11:50:48;62137.28;;;-147.77;100.00
60170;BME280;46042;49.444;6.862;2024-03-25T11:53:14;62137.28;;;-147.77;100.00
60170;BME280;46042;49.444;6.862;2024-03-25T11:55:40;62137.28;;;-147.77;100.00
60170;BME280;46042;49.444;6.862;2024-03-25T11:58:07;62137.28;;;-147.77;100.00
60170;BME280;46042;49.444;6.862;2024-03-25T12:00:45;62137.28;;;-147.77;100.00
60170;BME280;46042;49.444;6.862;2024-03-25T12:03:13;62137.28;;;-147.77;100.00
60170;BME280;46042;49.444;6.862;2024-03-25T12:05:40;62137.28;;;-147.77;100.00
60170;BME280;46042;49.444;6.862;2024-03-25T12:08:10;62137.28;;;-147.77;100.00
60170;BME280;46042;49.444;6.862;2024-03-25T12:10:37;62137.28;;;-147.77;100.00
60170;BME280;46042;49.444;6.862;2024-03-25T12:13:22;62137.28;;;-147.77;100.00
60170;BME280;46042;49.444;6.862;2024-03-25T12:15:49;62137.28;;;-147.77;100.00
60170;BME280;46042;49.444;6.862;2024-03-25T12:18:15;62137.28;;;-147.77;100.00
60170;BME280;46042;49.444;6.862;2024-03-25T12:20:41;62137.28;;;-147.77;100.00
60170;BME280;46042;49.444;6.862;2024-03-25T12:23:10;62137.28;;;-147.77;100.00
60170;BME280;46042;49.444;6.862;2024-03-25T12:25:36;62137.28;;;-147.77;100.00
60170;BME280;46042;49.444;6.862;2024-03-25T12:28:08;62137.28;;;-147.77;100.00
60170;BME280;46042;49.444;6.862;2024-03-25T12:30:49;62137.28;;;-147.77;100.00
60170;BME280;46042;49.444;6.862;2024-03-25T12:33:15;62137.28;;;-147.77;100.00
60170;BME280;46042;49.444;6.862;2024-03-25T12:35:41;62137.28;;;-147.77;100.00
60170;BME280;46042;49.444;6.862;2024-03-25T12:38:07;62137.28;;;-147.77;100.00
60170;BME280;46042;49.444;6.862;2024-03-25T12:40:33;62137.28;;;-147.77;100.00
60170;BME280;46042;49.444;6.862;2024-03-25T12:42:59;62137.28;;;-147.77;100.00
60170;BME280;46042;49.444;6.862;2024-03-25T12:45:24;62137.28;;;-147.77;100.00
60170;BME280;46042;49.444;6.862;2024-03-25T12:47:50;62137.28;;;-147.77;100.00
60170;BME280;46042;49.444;6.862;2024-03-25T12:50:17;62137.28;;;-147.77;100.00
60170;BME280;46042;49.444;6.862;2024-03-25T12:52:44;62137.28;;;-147.77;100.00
60170;BME280;46042;49.444;6.862;2024-03-25T12:55:11;62137.28;;;-147.77;100.00